Time;durP1;ratioP1;P1;durP2;ratioP2;P2;SDS_P1;SDS_P2;PMS_P1;PMS_P2;Temp;Humidity;BMP_temperature;BMP_pressure;BME280_temperature;BME280_humidity;BME280_pressure;Samples;Min_cycle;Max_cycle;Signal;HPM_P1;HPM_P2
2022/06/26 00:01:00;;;;;;;4.03;2.23;;;16.50;56.10;;;;;;5031764;28;46359;-62
2022/06/26 00:03:26;;;;;;;3.70;1.87;;;16.50;56.40;;;;;;5030280;28;46421;-62
2022/06/26 00:05:52;;;;;;;7.97;2.20;;;16.50;56.60;;;;;;5029513;28;46778;-62
2022/06/26 00:08:18;;;;;;;4.47;2.13;;;16.40;56.80;;;;;;5030866;28;46948;-63
2022/06/26 00:10:46;;;;;;;8.83;2.57;;;16.40;57.60;;;;;;5032998;28;46756;-62
2022/06/26 00:13:11;;;;;;;13.87;2.33;;;16.30;57.40;;;;;;5032397;28;46474;-62
2022/06/26 00:15:37;;;;;;;4.03;2.40;;;16.30;57.40;;;;;;5034246;28;46503;-62
2022/06/26 00:18:03;;;;;;;8.27;2.33;;;16.20;57.30;;;;;;5031522;28;46578;-62
2022/06/26 00:20:29;;;;;;;4.57;2.13;;;16.10;57.80;;;;;;5030633;28;46665;-62
2022/06/26 00:22:54;;;;;;;10.53;2.37;;;16.10;58.30;;;;;;5029480;28;46469;-62
2022/06/26 00:25:20;;;;;;;4.13;2.20;;;16.00;58.60;;;;;;5034243;28;46302;-62
2022/06/26 00:27:46;;;;;;;6.57;2.30;;;16.00;59.00;;;;;;5031522;28;46228;-62
2022/06/26 00:30:13;;;;;;;5.90;2.40;;;16.00;59.30;;;;;;5029731;28;46480;-62
2022/06/26 00:32:39;;;;;;;7.07;2.40;;;15.90;59.20;;;;;;5032955;28;46558;-62
2022/06/26 00:35:05;;;;;;;8.37;2.60;;;15.90;59.30;;;;;;5030219;28;45910;-62
2022/06/26 00:37:30;;;;;;;6.00;2.83;;;15.90;59.50;;;;;;5034281;28;46411;-62
2022/06/26 00:39:56;;;;;;;10.17;3.90;;;15.80;59.50;;;;;;5032003;28;46374;-62
2022/06/26 00:42:22;;;;;;;6.30;2.57;;;15.90;59.80;;;;;;5034301;28;46419;-62
2022/06/26 00:44:51;;;;;;;6.17;3.47;;;15.90;59.70;;;;;;5029924;28;46457;-62
2022/06/26 00:47:17;;;;;;;8.30;2.97;;;16.00;59.60;;;;;;5032751;28;47193;-63
2022/06/26 00:49:44;;;;;;;5.70;2.70;;;16.10;59.30;;;;;;5029664;28;46644;-63
2022/06/26 00:52:09;;;;;;;4.80;2.87;;;16.20;58.80;;;;;;5032100;28;46401;-62
2022/06/26 00:54:35;;;;;;;5.70;2.70;;;16.40;58.50;;;;;;5031930;28;46571;-62
2022/06/26 00:57:01;;;;;;;5.03;2.90;;;16.50;57.60;;;;;;5030803;28;46541;-62
2022/06/26 00:59:28;;;;;;;8.97;3.10;;;16.60;57.70;;;;;;5030074;28;46405;-63
2022/06/26 01:01:54;;;;;;;5.03;3.20;;;16.70;57.80;;;;;;5029618;28;46349;-63
2022/06/26 01:04:19;;;;;;;6.40;3.73;;;16.80;57.90;;;;;;5032028;28;45927;-62
2022/06/26 01:06:47;;;;;;;4.67;2.50;;;16.90;57.70;;;;;;5029046;28;47107;-62
2022/06/26 01:09:14;;;;;;;7.93;2.57;;;16.90;57.70;;;;;;5028579;28;46760;-62
2022/06/26 01:11:42;;;;;;;8.00;2.90;;;16.80;57.90;;;;;;5032036;28;46449;-63
2022/06/26 01:14:08;;;;;;;15.57;3.63;;;16.80;57.90;;;;;;5026908;28;46561;-62
2022/06/26 01:16:35;;;;;;;16.63;2.93;;;16.80;57.90;;;;;;5032551;28;46523;-62
2022/06/26 01:19:01;;;;;;;19.83;3.27;;;16.80;57.90;;;;;;5029800;28;46477;-62
2022/06/26 01:21:27;;;;;;;5.20;2.83;;;16.80;57.90;;;;;;5028441;28;46366;-63
2022/06/26 01:23:54;;;;;;;8.87;2.87;;;16.80;57.90;;;;;;5035010;28;46474;-63
2022/06/26 01:26:21;;;;;;;5.37;2.80;;;16.80;57.90;;;;;;5030236;28;46595;-62
2022/06/26 01:28:46;;;;;;;13.83;3.53;;;16.70;58.30;;;;;;5031109;28;46502;-63
2022/06/26 01:31:13;;;;;;;6.10;2.53;;;16.80;58.70;;;;;;5034011;28;46412;-63
2022/06/26 01:33:38;;;;;;;9.73;3.00;;;16.80;58.40;;;;;;5035309;28;46431;-61
2022/06/26 01:36:05;;;;;;;7.07;2.70;;;16.90;58.20;;;;;;5032077;28;47061;-63
2022/06/26 01:38:30;;;;;;;6.00;3.30;;;16.90;58.10;;;;;;5032486;28;46339;-62
2022/06/26 01:40:57;;;;;;;5.03;2.73;;;17.00;58.10;;;;;;5029650;28;46344;-63
2022/06/26 01:43:27;;;;;;;5.53;2.87;;;17.00;59.40;;;;;;5032588;28;45889;-62
2022/06/26 01:45:54;;;;;;;11.63;2.60;;;17.00;58.20;;;;;;5028886;28;46672;-63
2022/06/26 01:48:21;;;;;;;11.20;2.87;;;17.00;58.60;;;;;;5028778;28;46423;-63
2022/06/26 01:50:47;;;;;;;4.60;3.03;;;16.90;58.90;;;;;;5027854;28;46515;-62
2022/06/26 01:53:14;;;;;;;4.90;2.80;;;17.00;58.90;;;;;;5029865;28;46410;-63
2022/06/26 01:55:40;;;;;;;6.00;3.20;;;17.00;58.90;;;;;;5028417;28;46647;-62
2022/06/26 01:58:05;;;;;;;6.63;2.90;;;17.00;58.70;;;;;;5045283;28;46668;-62
2022/06/26 02:00:33;;;;;;;8.80;3.40;;;17.10;58.30;;;;;;5028622;28;46374;-62
2022/06/26 02:03:00;;;;;;;8.30;3.73;;;17.20;58.30;;;;;;5030474;28;46371;-62
2022/06/26 02:05:26;;;;;;;5.33;3.13;;;17.30;58.40;;;;;;5029869;28;47060;-62
2022/06/26 02:07:52;;;;;;;6.70;3.10;;;17.30;58.40;;;;;;5029090;28;46411;-62
2022/06/26 02:15:47;;;;;;;6.53;2.70;;;17.50;58.20;;;;;;5030678;28;46097;-62
2022/06/26 02:18:13;;;;;;;5.10;2.60;;;17.50;58.10;;;;;;5029109;28;46539;-61
2022/06/26 02:20:39;;;;;;;4.50;2.50;;;17.50;58.50;;;;;;5032032;28;46494;-62
2022/06/26 02:23:05;;;;;;;6.07;2.40;;;17.50;58.60;;;;;;5032613;28;46593;-62
2022/06/26 02:25:31;;;;;;;5.93;2.47;;;17.50;58.60;;;;;;5035831;28;46096;-61
2022/06/26 02:27:56;;;;;;;6.00;3.00;;;17.50;58.60;;;;;;5028248;28;46418;-62
2022/06/26 02:30:22;;;;;;;7.43;2.47;;;17.50;58.60;;;;;;5026534;28;46443;-62
2022/06/26 02:32:48;;;;;;;5.50;2.90;;;17.50;59.80;;;;;;5029647;28;46331;-62
2022/06/26 02:35:13;;;;;;;4.30;3.00;;;17.50;58.60;;;;;;5030120;28;47353;-62
2022/06/26 02:37:39;;;;;;;6.23;2.83;;;17.50;58.60;;;;;;5029586;28;46380;-61
2022/06/26 02:40:06;;;;;;;5.83;2.73;;;17.40;58.50;;;;;;5027348;28;46309;-63
2022/06/26 02:42:32;;;;;;;8.27;2.73;;;17.30;58.40;;;;;;5028626;28;46339;-63
2022/06/26 02:44:57;;;;;;;5.20;3.10;;;17.30;59.10;;;;;;5028404;28;48208;-62
2022/06/26 02:47:23;;;;;;;7.17;3.63;;;17.30;59.40;;;;;;5030167;28;46838;-61
2022/06/26 02:49:48;;;;;;;6.87;4.10;;;17.20;59.60;;;;;;5027851;28;46328;-61
2022/06/26 02:52:14;;;;;;;5.00;3.40;;;17.20;59.60;;;;;;5030908;28;46748;-63
2022/06/26 02:54:39;;;;;;;7.57;3.37;;;17.20;59.70;;;;;;5033137;28;46536;-63
2022/06/26 02:57:05;;;;;;;7.43;3.80;;;17.20;59.70;;;;;;5032506;28;46425;-62
2022/06/26 02:59:31;;;;;;;6.53;3.40;;;17.20;59.90;;;;;;5032495;28;46422;-62
2022/06/26 03:01:57;;;;;;;12.87;3.90;;;17.20;60.00;;;;;;5030487;28;46536;-62
2022/06/26 03:04:23;;;;;;;10.00;4.43;;;17.20;60.00;;;;;;5030202;28;46249;-62
2022/06/26 03:06:49;;;;;;;5.80;4.03;;;17.20;59.80;;;;;;5031772;28;45843;-62
2022/06/26 03:09:14;;;;;;;5.73;4.50;;;17.20;59.80;;;;;;5026888;28;46418;-62
2022/06/26 03:11:41;;;;;;;6.67;4.73;;;17.20;60.00;;;;;;5035805;28;46303;-62
2022/06/26 03:14:07;;;;;;;8.63;5.07;;;17.30;60.00;;;;;;5031491;28;46957;-62
2022/06/26 03:16:33;;;;;;;6.13;4.50;;;17.30;59.80;;;;;;5033184;28;46639;-62
2022/06/26 03:18:59;;;;;;;11.93;4.80;;;17.30;59.70;;;;;;5031688;28;46380;-63
2022/06/26 03:21:24;;;;;;;9.63;5.33;;;17.20;59.90;;;;;;5033016;28;46410;-63
2022/06/26 03:24:02;;;;;;;8.23;4.70;;;17.30;60.10;;;;;;5034670;28;46370;-63
2022/06/26 03:26:38;;;;;;;9.63;4.43;;;17.20;60.00;;;;;;5034483;28;46361;-63
2022/06/26 03:29:08;;;;;;;16.73;5.10;;;17.20;60.30;;;;;;5032791;28;46521;-62
2022/06/26 03:31:34;;;;;;;6.80;4.90;;;17.10;60.30;;;;;;5031627;28;46714;-62
2022/06/26 03:34:00;;;;;;;9.53;4.50;;;17.10;60.50;;;;;;5033248;28;47234;-62
2022/06/26 03:36:27;;;;;;;9.47;4.57;;;17.00;60.60;;;;;;5031339;28;46393;-63
2022/06/26 03:38:54;;;;;;;12.47;5.00;;;17.00;60.90;;;;;;5030689;28;46529;-62
2022/06/26 03:41:20;;;;;;;17.37;4.67;;;17.10;61.00;;;;;;5030801;28;46343;-62
2022/06/26 03:43:46;;;;;;;11.07;4.60;;;17.00;61.00;;;;;;5032628;28;47110;-62
2022/06/26 03:46:11;;;;;;;8.57;4.07;;;17.10;61.10;;;;;;5032049;28;46327;-62
2022/06/26 03:48:37;;;;;;;7.57;4.03;;;17.10;61.10;;;;;;5027282;28;46327;-63
2022/06/26 03:51:04;;;;;;;13.63;4.07;;;17.10;61.10;;;;;;5033478;28;46356;-62
2022/06/26 03:53:30;;;;;;;8.87;4.13;;;17.10;61.20;;;;;;5031149;28;47030;-62
2022/06/26 03:55:56;;;;;;;7.00;3.30;;;17.10;61.20;;;;;;5033804;28;46466;-62
2022/06/26 03:58:22;;;;;;;6.70;4.27;;;17.00;61.30;;;;;;5034454;28;46390;-62
2022/06/26 04:00:49;;;;;;;7.20;3.60;;;17.10;61.40;;;;;;5033796;28;46463;-62
2022/06/26 04:03:15;;;;;;;6.37;3.73;;;17.20;61.10;;;;;;5030613;28;46663;-62
2022/06/26 04:05:40;;;;;;;13.43;3.80;;;17.20;61.00;;;;;;5033868;28;46543;-62
2022/06/26 04:08:06;;;;;;;8.10;3.40;;;17.30;60.90;;;;;;5036563;28;46336;-62
2022/06/26 04:10:33;;;;;;;8.90;3.20;;;17.30;60.70;;;;;;5036133;28;46232;-62
2022/06/26 04:13:04;;;;;;;9.20;3.10;;;17.30;60.60;;;;;;5036565;28;47334;-62
2022/06/26 04:15:31;;;;;;;5.17;3.00;;;17.40;60.70;;;;;;5031098;28;46249;-62
2022/06/26 04:17:58;;;;;;;5.00;2.90;;;17.50;60.60;;;;;;5035553;28;46387;-62
2022/06/26 04:20:24;;;;;;;6.53;2.83;;;17.50;60.30;;;;;;5030861;28;46590;-61
2022/06/26 04:23:00;;;;;;;8.40;3.10;;;17.60;60.20;;;;;;5032453;28;46518;-62
2022/06/26 04:25:27;;;;;;;7.13;2.80;;;17.70;60.00;;;;;;5032585;28;45922;-62
2022/06/26 04:27:53;;;;;;;8.60;2.80;;;17.80;59.50;;;;;;5029340;28;46526;-61
2022/06/26 04:30:19;;;;;;;9.30;3.83;;;17.90;59.00;;;;;;5033777;28;46557;-62
2022/06/26 04:32:45;;;;;;;4.10;2.60;;;18.00;59.00;;;;;;5037231;28;47921;-62
2022/06/26 04:35:11;;;;;;;5.03;3.07;;;18.10;59.20;;;;;;5037578;28;46616;-62
2022/06/26 04:37:37;;;;;;;8.57;3.10;;;18.30;59.30;;;;;;5033637;28;46326;-61
2022/06/26 04:40:04;;;;;;;5.33;2.33;;;18.30;58.90;;;;;;5031040;28;46366;-62
2022/06/26 04:42:30;;;;;;;5.57;2.60;;;18.50;58.50;;;;;;5030825;28;46406;-61
2022/06/26 04:44:56;;;;;;;6.30;2.30;;;18.60;58.50;;;;;;5034915;28;46487;-62
2022/06/26 04:47:21;;;;;;;7.63;1.90;;;19.60;56.50;;;;;;5031784;28;46519;-62
2022/06/26 04:49:47;;;;;;;6.17;1.87;;;20.90;54.10;;;;;;5034936;28;46469;-62
2022/06/26 04:52:14;;;;;;;4.80;1.90;;;22.50;50.20;;;;;;5031589;28;46035;-62
2022/06/26 04:54:40;;;;;;;3.27;1.87;;;24.30;45.80;;;;;;5031324;28;46421;-62
2022/06/26 04:57:07;;;;;;;3.53;2.20;;;25.00;42.80;;;;;;5034550;28;46406;-63
2022/06/26 04:59:32;;;;;;;2.83;1.70;;;25.80;40.50;;;;;;5037038;28;45909;-61
2022/06/26 05:01:58;;;;;;;4.67;2.10;;;27.10;37.40;;;;;;5030534;28;46916;-62
2022/06/26 05:04:23;;;;;;;3.43;1.90;;;28.10;33.80;;;;;;5030974;28;46406;-61
2022/06/26 05:06:49;;;;;;;3.50;1.77;;;29.00;30.80;;;;;;5028062;28;46371;-60
2022/06/26 05:09:16;;;;;;;11.50;2.37;;;29.70;28.50;;;;;;5028531;28;46647;-61
2022/06/26 05:11:42;;;;;;;4.50;1.90;;;30.20;27.50;;;;;;5027137;28;46641;-61
2022/06/26 05:14:08;;;;;;;5.27;2.03;;;30.90;25.70;;;;;;5027604;28;46510;-61
2022/06/26 05:16:34;;;;;;;7.50;1.63;;;31.20;24.40;;;;;;5030807;28;46560;-61
2022/06/26 05:18:59;;;;;;;4.63;1.73;;;31.50;23.50;;;;;;5028664;28;46398;-61
2022/06/26 05:21:25;;;;;;;4.00;1.87;;;31.90;21.90;;;;;;5029393;28;47234;-60
2022/06/26 05:23:51;;;;;;;6.30;1.70;;;32.40;20.40;;;;;;5034967;28;46397;-60
2022/06/26 05:26:16;;;;;;;4.53;1.60;;;32.70;19.00;;;;;;5035385;28;46404;-60
2022/06/26 05:28:42;;;;;;;3.17;1.83;;;32.90;18.30;;;;;;5035933;28;46397;-63
2022/06/26 05:31:08;;;;;;;7.43;2.30;;;33.10;17.90;;;;;;5033824;28;46383;-61
2022/06/26 05:33:33;;;;;;;3.20;1.73;;;33.30;17.60;;;;;;5030424;28;46411;-60
2022/06/26 05:35:59;;;;;;;3.23;1.67;;;33.60;17.00;;;;;;5033231;28;46193;-62
2022/06/26 05:38:25;;;;;;;2.77;1.60;;;33.90;16.70;;;;;;5027903;28;46341;-61
2022/06/26 05:40:50;;;;;;;9.13;1.70;;;34.20;16.10;;;;;;5030628;28;47045;-62
2022/06/26 05:43:16;;;;;;;4.30;1.80;;;34.60;15.20;;;;;;5030325;28;46519;-62
2022/06/26 05:45:41;;;;;;;2.40;1.50;;;35.00;14.30;;;;;;5031798;28;46409;-62
2022/06/26 05:48:07;;;;;;;2.50;1.43;;;35.30;13.40;;;;;;5032592;28;46574;-61
2022/06/26 05:50:33;;;;;;;2.63;1.50;;;35.50;12.90;;;;;;5032832;28;47220;-60
2022/06/26 05:52:59;;;;;;;3.60;1.40;;;35.40;12.60;;;;;;5029550;28;46451;-59
2022/06/26 05:55:24;;;;;;;3.93;1.63;;;35.10;12.70;;;;;;5031610;28;46415;-60
2022/06/26 05:57:50;;;;;;;2.00;1.20;;;33.60;15.00;;;;;;5030672;28;46778;-59
2022/06/26 06:00:16;;;;;;;2.70;1.40;;;31.70;19.40;;;;;;5030411;28;46498;-59
2022/06/26 06:02:42;;;;;;;2.80;1.40;;;30.20;20.60;;;;;;5032414;28;46510;-61
2022/06/26 06:05:08;;;;;;;4.07;1.37;;;28.90;23.80;;;;;;5027937;28;46751;-60
2022/06/26 06:07:36;;;;;;;6.33;1.40;;;28.10;24.20;;;;;;5032193;28;46383;-60
2022/06/26 06:10:05;;;;;;;4.73;1.70;;;27.50;25.10;;;;;;5028153;28;46497;-59
2022/06/26 06:12:31;;;;;;;3.60;1.60;;;27.00;26.10;;;;;;5030589;28;46529;-61
2022/06/26 06:14:56;;;;;;;6.53;1.70;;;26.80;26.80;;;;;;5030298;28;46515;-60
2022/06/26 06:17:37;;;;;;;5.70;1.70;;;26.50;26.80;;;;;;5025482;28;46366;-60
2022/06/26 06:20:14;;;;;;;2.47;1.30;;;26.30;26.70;;;;;;5031460;28;47148;-60
2022/06/26 06:22:45;;;;;;;4.83;1.63;;;26.20;26.60;;;;;;5027198;28;46354;-60
2022/06/26 06:25:11;;;;;;;6.80;1.53;;;26.10;26.50;;;;;;5030612;28;46504;-62
2022/06/26 06:27:38;;;;;;;5.80;1.80;;;26.10;26.50;;;;;;5033556;28;46461;-61
2022/06/26 06:30:06;;;;;;;2.90;1.40;;;26.00;27.00;;;;;;5033389;28;46480;-60
2022/06/26 06:32:32;;;;;;;3.00;1.53;;;25.80;27.40;;;;;;5037474;28;46429;-61
2022/06/26 06:34:58;;;;;;;3.93;1.50;;;25.80;27.70;;;;;;5030748;28;46243;-60
2022/06/26 06:37:23;;;;;;;4.23;1.47;;;25.90;27.80;;;;;;5033600;28;46675;-60
2022/06/26 06:39:49;;;;;;;3.20;1.77;;;25.90;27.70;;;;;;5030821;28;46459;-62
2022/06/26 06:42:14;;;;;;;5.63;1.60;;;25.80;27.90;;;;;;5035096;28;46481;-62
2022/06/26 06:44:40;;;;;;;3.90;1.63;;;25.80;27.90;;;;;;5042605;28;46621;-61
2022/06/26 06:47:06;;;;;;;4.50;2.17;;;26.00;27.90;;;;;;5037672;28;46513;-61
2022/06/26 06:49:32;;;;;;;3.13;1.57;;;26.10;27.80;;;;;;5031844;28;46449;-60
2022/06/26 06:51:58;;;;;;;3.10;1.80;;;26.20;27.70;;;;;;5037784;28;46469;-61
2022/06/26 06:54:25;;;;;;;4.83;1.80;;;26.30;27.10;;;;;;5035623;28;46481;-61
2022/06/26 06:56:51;;;;;;;4.00;1.77;;;26.20;26.60;;;;;;5030595;28;46567;-62
2022/06/26 06:59:17;;;;;;;4.00;1.60;;;26.30;26.70;;;;;;5033485;28;47089;-60
2022/06/26 07:01:42;;;;;;;7.30;2.00;;;26.10;26.50;;;;;;5029744;28;46416;-60
2022/06/26 07:04:08;;;;;;;3.37;1.60;;;26.10;26.50;;;;;;5035442;28;45890;-60
2022/06/26 07:06:34;;;;;;;2.60;1.40;;;26.10;26.80;;;;;;5033858;28;46751;-60
2022/06/26 07:09:00;;;;;;;4.13;1.60;;;26.20;26.60;;;;;;5034518;28;46162;-60
2022/06/26 07:11:25;;;;;;;3.33;1.77;;;26.20;26.60;;;;;;5030935;28;46497;-60
2022/06/26 07:13:51;;;;;;;3.57;1.80;;;26.10;26.50;;;;;;5033834;28;46557;-60
2022/06/26 07:16:17;;;;;;;3.10;1.50;;;26.10;26.50;;;;;;5029872;28;46603;-60
2022/06/26 07:18:42;;;;;;;3.27;1.70;;;25.90;26.50;;;;;;5030236;28;46568;-60
2022/06/26 07:21:08;;;;;;;3.23;1.60;;;25.90;26.40;;;;;;5036702;28;46440;-60
2022/06/26 07:23:34;;;;;;;4.10;1.83;;;26.00;26.50;;;;;;5038671;28;46378;-60
2022/06/26 07:25:59;;;;;;;3.30;1.60;;;26.00;26.50;;;;;;5036506;28;46387;-60
2022/06/26 07:28:25;;;;;;;2.77;1.50;;;26.30;26.60;;;;;;5033911;28;47448;-62
2022/06/26 07:30:52;;;;;;;3.93;1.93;;;26.40;25.90;;;;;;5037951;28;46465;-61
2022/06/26 07:36:02;;;;;;;4.73;1.70;;;26.50;25.40;;;;;;5037478;28;46374;-60
2022/06/26 07:38:27;;;;;;;3.40;1.60;;;26.40;25.50;;;;;;5033178;28;47142;-61
2022/06/26 07:40:53;;;;;;;3.57;1.73;;;26.50;25.40;;;;;;5033874;28;45876;-60
2022/06/26 07:43:19;;;;;;;2.83;1.57;;;26.60;25.20;;;;;;5040833;28;46417;-61
2022/06/26 07:45:44;;;;;;;3.00;1.60;;;26.50;25.30;;;;;;5033846;28;46324;-61
2022/06/26 07:48:10;;;;;;;3.10;1.60;;;26.40;25.40;;;;;;5036492;28;48978;-62
2022/06/26 07:50:36;;;;;;;3.00;1.80;;;26.40;25.70;;;;;;5024578;28;46084;-62
2022/06/26 07:53:02;;;;;;;4.03;1.57;;;26.30;26.40;;;;;;5032012;28;46932;-65
2022/06/26 07:55:27;;;;;;;5.07;1.73;;;26.10;26.50;;;;;;5035243;28;46447;-65
2022/06/26 07:57:53;;;;;;;3.63;1.70;;;26.20;26.60;;;;;;5032808;28;47121;-62
2022/06/26 08:00:19;;;;;;;3.20;1.87;;;26.60;26.20;;;;;;5032062;28;46461;-63
2022/06/26 08:02:44;;;;;;;3.03;1.93;;;26.70;26.30;;;;;;5032644;28;46869;-62
2022/06/26 08:05:11;;;;;;;2.63;1.57;;;26.90;25.80;;;;;;5032012;28;46355;-63
2022/06/26 08:07:37;;;;;;;3.30;1.80;;;26.50;26.10;;;;;;5033420;28;46523;-60
2022/06/26 08:10:03;;;;;;;4.27;1.93;;;26.10;26.50;;;;;;5031207;28;46460;-62
2022/06/26 08:12:29;;;;;;;3.10;1.73;;;25.90;26.50;;;;;;5037670;28;46454;-62
2022/06/26 08:14:54;;;;;;;7.73;1.93;;;26.00;26.50;;;;;;5038367;28;46065;-61
2022/06/26 08:17:20;;;;;;;10.63;1.63;;;26.20;26.60;;;;;;5031839;28;46715;-61
2022/06/26 08:19:47;;;;;;;5.20;1.80;;;26.30;26.70;;;;;;5031909;28;46628;-61
2022/06/26 08:22:13;;;;;;;2.97;1.60;;;26.50;26.80;;;;;;5033526;28;46487;-61
2022/06/26 08:24:41;;;;;;;2.77;1.60;;;26.70;26.50;;;;;;5035272;28;46517;-62
2022/06/26 08:27:08;;;;;;;2.90;1.70;;;26.40;26.80;;;;;;5036608;28;46492;-63
2022/06/26 08:29:35;;;;;;;2.50;1.33;;;26.60;26.80;;;;;;5032057;28;46563;-62
2022/06/26 08:32:00;;;;;;;3.33;1.80;;;26.70;26.90;;;;;;5029119;28;46571;-64
2022/06/26 08:34:26;;;;;;;3.30;1.60;;;26.80;25.90;;;;;;5032426;28;46588;-62
2022/06/26 08:36:53;;;;;;;3.27;1.50;;;26.60;25.90;;;;;;5034668;28;46411;-62
2022/06/26 08:39:19;;;;;;;3.23;1.80;;;26.60;26.20;;;;;;5032375;28;46411;-63
2022/06/26 08:41:45;;;;;;;6.00;1.70;;;26.60;26.60;;;;;;5031917;28;46482;-61
2022/06/26 08:44:11;;;;;;;3.10;1.60;;;26.80;26.10;;;;;;5032096;28;46393;-63
2022/06/26 08:46:43;;;;;;;3.37;1.63;;;27.00;26.10;;;;;;5031493;28;46346;-62
2022/06/26 08:49:17;;;;;;;3.60;1.73;;;27.10;25.70;;;;;;5029227;28;46089;-64
2022/06/26 08:51:46;;;;;;;2.63;1.60;;;27.10;25.90;;;;;;5030825;28;46482;-64
2022/06/26 08:54:13;;;;;;;3.60;1.43;;;27.00;25.90;;;;;;5031510;28;46435;-63
2022/06/26 08:56:41;;;;;;;7.10;1.63;;;27.00;25.60;;;;;;5031179;28;47132;-63
2022/06/26 08:59:10;;;;;;;2.90;1.37;;;26.90;25.80;;;;;;5031508;28;46763;-62
2022/06/26 09:01:38;;;;;;;3.10;1.40;;;26.80;26.00;;;;;;5029491;28;46567;-62
2022/06/26 09:04:04;;;;;;;2.80;1.33;;;26.90;26.10;;;;;;5031264;28;46420;-63
2022/06/26 09:06:33;;;;;;;2.90;1.70;;;27.10;25.10;;;;;;5031903;28;47362;-62
2022/06/26 09:08:59;;;;;;;3.10;1.30;;;27.20;24.60;;;;;;5032738;28;46473;-64
2022/06/26 09:11:24;;;;;;;4.33;1.50;;;27.30;24.50;;;;;;5033719;28;46423;-62
2022/06/26 09:13:53;;;;;;;2.50;1.40;;;27.10;24.90;;;;;;5032823;28;46431;-62
2022/06/26 09:16:30;;;;;;;3.43;1.40;;;26.90;25.50;;;;;;5034197;28;46420;-63
2022/06/26 09:19:05;;;;;;;3.40;1.40;;;27.00;26.10;;;;;;5032688;28;46507;-63
2022/06/26 09:21:30;;;;;;;3.20;1.40;;;27.20;25.60;;;;;;5035274;28;46515;-63
2022/06/26 09:23:56;;;;;;;5.80;1.27;;;27.10;25.50;;;;;;5027303;28;46433;-61
2022/06/26 09:26:21;;;;;;;2.57;1.50;;;27.00;25.20;;;;;;5032676;28;48140;-62
2022/06/26 09:28:47;;;;;;;3.73;1.43;;;27.20;25.00;;;;;;5035619;28;46906;-63
2022/06/26 09:31:19;;;;;;;3.17;1.60;;;27.00;25.00;;;;;;5035488;28;46480;-63
2022/06/26 09:33:45;;;;;;;2.60;1.40;;;27.00;25.10;;;;;;5027162;28;46522;-62
2022/06/26 09:36:15;;;;;;;3.00;1.50;;;26.80;24.90;;;;;;5031885;28;46449;-64
2022/06/26 09:38:48;;;;;;;3.07;1.40;;;26.80;25.00;;;;;;5030497;28;47452;-63
2022/06/26 09:41:13;;;;;;;3.03;1.50;;;27.20;24.60;;;;;;5033034;28;46539;-63
2022/06/26 09:43:43;;;;;;;3.93;1.30;;;27.00;24.70;;;;;;5030900;28;45975;-63
2022/06/26 09:46:13;;;;;;;2.97;1.40;;;27.10;25.20;;;;;;5028472;28;47213;-64
2022/06/26 09:48:41;;;;;;;2.63;1.43;;;27.20;24.70;;;;;;5028262;28;46930;-64
2022/06/26 09:51:13;;;;;;;2.50;1.30;;;27.20;24.80;;;;;;5029196;28;46310;-63
2022/06/26 09:53:39;;;;;;;3.10;1.50;;;27.30;24.90;;;;;;5027922;28;46339;-63
2022/06/26 09:56:06;;;;;;;2.43;1.37;;;27.20;24.50;;;;;;5026388;28;46433;-65
2022/06/26 09:58:31;;;;;;;2.53;1.30;;;27.30;24.50;;;;;;5033807;28;46429;-63
2022/06/26 10:06:30;;;;;;;3.20;1.30;;;27.70;22.40;;;;;;5025815;28;46633;-64
2022/06/26 10:09:05;;;;;;;2.70;1.30;;;27.70;22.00;;;;;;5033560;28;46485;-63
2022/06/26 10:11:33;;;;;;;2.20;1.20;;;27.90;21.20;;;;;;5035246;28;46461;-63
2022/06/26 10:14:04;;;;;;;2.60;1.27;;;27.90;21.50;;;;;;5032372;28;46501;-64
2022/06/26 10:17:09;;;;;;;3.20;1.47;;;28.00;21.50;;;;;;5034769;28;46873;-63
2022/06/26 10:19:45;;;;;;;6.40;1.53;;;28.00;21.90;;;;;;5037244;28;47101;-62
2022/06/26 10:22:13;;;;;;;2.30;1.13;;;28.10;22.00;;;;;;5031832;28;46465;-63
2022/06/26 10:24:56;;;;;;;2.30;1.20;;;28.10;21.50;;;;;;5031574;28;46451;-62
2022/06/26 10:27:30;;;;;;;3.47;1.10;;;28.20;20.70;;;;;;5034131;28;47301;-63
2022/06/26 10:30:07;;;;;;;3.13;1.33;;;28.20;21.10;;;;;;5034471;28;46714;-62
2022/06/26 10:32:33;;;;;;;3.03;1.40;;;28.40;20.90;;;;;;5034528;28;46418;-64
2022/06/26 10:34:59;;;;;;;2.63;1.20;;;28.50;21.00;;;;;;5032676;28;46737;-63
2022/06/26 10:37:25;;;;;;;3.03;1.30;;;28.30;21.00;;;;;;5034280;28;46855;-62
2022/06/26 10:39:53;;;;;;;2.50;1.30;;;28.30;21.20;;;;;;5033728;28;46466;-63
2022/06/26 10:45:27;;;;;;;2.10;1.07;;;28.20;20.80;;;;;;5032554;28;46724;-63
2022/06/26 10:47:58;;;;;;;2.63;1.17;;;28.30;20.80;;;;;;5036886;28;46461;-62
2022/06/26 10:50:29;;;;;;;3.23;1.10;;;28.30;20.50;;;;;;5034266;28;46351;-64
2022/06/26 10:53:15;;;;;;;2.43;1.17;;;28.30;19.70;;;;;;5035667;28;46346;-62
2022/06/26 10:55:47;;;;;;;2.97;1.40;;;28.20;19.30;;;;;;5031720;28;46503;-62
2022/06/26 10:58:19;;;;;;;2.40;1.20;;;28.20;19.40;;;;;;5033728;28;46410;-61
2022/06/26 11:00:45;;;;;;;3.60;1.30;;;28.20;19.60;;;;;;5029071;28;46315;-62
2022/06/26 11:03:15;;;;;;;3.33;1.10;;;28.30;19.70;;;;;;5031692;28;46461;-62
2022/06/26 11:06:12;;;;;;;4.13;1.27;;;28.50;19.40;;;;;;5029854;28;46085;-62
2022/06/26 11:08:38;;;;;;;5.40;1.40;;;28.60;19.50;;;;;;5030526;28;46269;-61
2022/06/26 11:11:10;;;;;;;4.97;1.30;;;28.50;19.60;;;;;;5032881;28;46379;-63
2022/06/26 11:13:47;;;;;;;3.40;1.20;;;28.50;19.60;;;;;;5033803;28;46431;-61
2022/06/26 11:16:12;;;;;;;7.07;1.20;;;28.40;19.90;;;;;;5034525;28;46331;-62
2022/06/26 11:18:38;;;;;;;2.47;1.30;;;28.20;20.50;;;;;;5029432;28;46894;-62
2022/06/26 11:21:05;;;;;;;2.80;1.30;;;28.20;19.90;;;;;;5032401;28;46474;-62
2022/06/26 11:23:34;;;;;;;3.00;1.10;;;28.30;19.70;;;;;;5034025;28;46730;-62
2022/06/26 11:26:08;;;;;;;2.40;1.13;;;28.50;19.40;;;;;;5032683;28;46401;-62
2022/06/26 11:28:37;;;;;;;2.90;1.43;;;28.60;19.50;;;;;;5030034;28;46432;-62
2022/06/26 11:31:04;;;;;;;3.27;1.20;;;28.60;19.50;;;;;;5030784;28;46376;-61
2022/06/26 11:33:34;;;;;;;4.90;1.60;;;28.50;19.50;;;;;;5033301;28;46518;-63
2022/06/26 11:36:12;;;;;;;3.53;1.37;;;28.60;19.50;;;;;;5030924;28;46597;-63
2022/06/26 11:38:38;;;;;;;2.83;1.50;;;28.50;20.60;;;;;;5032702;28;46520;-63
2022/06/26 11:41:06;;;;;;;2.73;1.33;;;28.60;19.50;;;;;;5033083;28;46297;-62
2022/06/26 11:43:33;;;;;;;3.37;1.60;;;28.80;19.70;;;;;;5035798;28;46679;-62
2022/06/26 11:46:00;;;;;;;3.30;1.70;;;28.80;19.70;;;;;;5036471;28;46438;-61
2022/06/26 11:48:26;;;;;;;3.77;1.37;;;28.90;19.80;;;;;;5032042;28;46386;-61
2022/06/26 11:50:54;;;;;;;3.73;1.80;;;28.70;20.00;;;;;;5024316;28;46066;-61
2022/06/26 11:53:23;;;;;;;3.90;1.63;;;28.60;19.90;;;;;;5031563;28;46457;-61
2022/06/26 11:55:57;;;;;;;3.00;1.60;;;28.70;19.80;;;;;;5031446;28;46564;-61
2022/06/26 11:58:27;;;;;;;3.60;1.57;;;28.90;19.90;;;;;;5033507;28;47068;-61
2022/06/26 12:01:05;;;;;;;2.30;1.20;;;28.90;19.40;;;;;;5033061;28;46509;-62
2022/06/26 12:03:30;;;;;;;5.10;1.73;;;29.00;19.70;;;;;;5030508;28;47280;-62
2022/06/26 12:05:56;;;;;;;2.70;1.30;;;29.10;19.40;;;;;;5031488;28;45978;-61
2022/06/26 12:08:21;;;;;;;3.40;1.30;;;29.00;19.10;;;;;;5033479;28;46889;-61
2022/06/26 12:10:50;;;;;;;2.90;1.50;;;29.00;19.30;;;;;;5033642;28;46730;-62
2022/06/26 12:13:29;;;;;;;2.70;1.37;;;29.10;19.20;;;;;;5032614;28;46330;-61
2022/06/26 12:16:05;;;;;;;4.93;1.50;;;29.20;19.10;;;;;;5032697;28;46819;-62
2022/06/26 12:18:33;;;;;;;4.03;1.57;;;29.10;19.10;;;;;;5027295;28;47474;-61
2022/06/26 12:20:59;;;;;;;2.30;1.13;;;29.00;19.50;;;;;;5030400;28;46394;-61
2022/06/26 12:23:36;;;;;;;3.10;1.40;;;29.00;19.50;;;;;;5030047;28;46445;-61
2022/06/26 12:26:07;;;;;;;3.10;1.23;;;29.00;19.10;;;;;;5031877;28;46293;-62
2022/06/26 12:28:33;;;;;;;2.57;1.33;;;29.00;19.10;;;;;;5030308;28;46729;-62
2022/06/26 12:31:01;;;;;;;3.47;1.50;;;29.10;19.40;;;;;;5030815;28;46352;-62
2022/06/26 12:33:27;;;;;;;5.20;1.40;;;29.10;19.50;;;;;;5030296;28;46423;-61
2022/06/26 12:35:52;;;;;;;4.30;1.50;;;29.20;19.30;;;;;;5028083;28;46315;-61
2022/06/26 12:38:28;;;;;;;3.23;1.43;;;29.10;18.80;;;;;;5030621;28;46461;-61
2022/06/26 12:40:54;;;;;;;2.60;1.30;;;28.90;19.30;;;;;;5032501;28;46490;-61
2022/06/26 12:43:20;;;;;;;4.07;1.30;;;28.80;19.30;;;;;;5030923;28;46504;-61
2022/06/26 12:45:46;;;;;;;3.30;1.40;;;28.90;19.10;;;;;;5031358;28;46786;-60
2022/06/26 12:48:12;;;;;;;3.00;1.43;;;28.90;19.10;;;;;;5031527;28;47086;-61
2022/06/26 12:50:38;;;;;;;2.87;1.50;;;28.90;18.90;;;;;;5030891;28;46442;-61
2022/06/26 12:53:04;;;;;;;3.80;1.70;;;28.90;18.90;;;;;;5031733;28;45893;-60
2022/06/26 12:55:29;;;;;;;2.80;1.43;;;29.00;19.10;;;;;;5032674;28;45979;-61
2022/06/26 12:57:55;;;;;;;4.23;1.53;;;29.10;19.20;;;;;;5028835;28;46664;-62
2022/06/26 13:00:20;;;;;;;4.07;1.20;;;29.10;18.90;;;;;;5031961;28;46459;-61
2022/06/26 13:02:46;;;;;;;4.53;1.33;;;29.10;19.10;;;;;;5027252;28;46433;-61